Time;durP1;ratioP1;P1;durP2;ratioP2;P2;SDS_P1;SDS_P2;PMS_P1;PMS_P2;Temp;Humidity;BMP_temperature;BMP_pressure;BME280_temperature;BME280_humidity;BME280_pressure;Samples;Min_cycle;Max_cycle;Signal;HPM_P1;HPM_P2
2023/10/02 00:01:10;;;;;;;9.70;3.90;;;;;;;13.90;71.65;100009.02;109155;1254;58784;-85
2023/10/02 00:03:39;;;;;;;11.40;4.20;;;;;;;13.84;71.73;100009.20;109510;1254;58761;-86
2023/10/02 00:06:16;;;;;;;11.60;4.30;;;;;;;13.77;71.98;100007.30;109024;1254;72806;-85
2023/10/02 00:08:51;;;;;;;7.30;4.10;;;;;;;13.71;72.19;100009.27;109373;1254;69371;-84
2023/10/02 00:11:41;;;;;;;8.80;4.00;;;;;;;13.69;72.22;100007.79;107036;1259;71056;-83
2023/10/02 00:14:18;;;;;;;10.10;4.60;;;;;;;13.77;72.24;100011.11;106336;1254;60561;-82
2023/10/02 00:17:00;;;;;;;8.80;4.40;;;;;;;13.76;72.27;100007.95;106467;1254;60860;-81
2023/10/02 00:19:30;;;;;;;10.50;4.40;;;;;;;13.68;72.50;100014.67;106077;1254;73080;-85
2023/10/02 00:22:03;;;;;;;9.90;4.00;;;;;;;13.57;72.76;100013.10;105767;1254;69963;-85
2023/10/02 00:24:32;;;;;;;9.90;3.90;;;;;;;13.46;73.04;100008.86;105786;1256;70217;-85
2023/10/02 00:27:01;;;;;;;8.50;4.50;;;;;;;13.40;73.34;100010.49;106452;1254;60434;-83
2023/10/02 00:29:29;;;;;;;12.50;4.20;;;;;;;13.40;73.38;100011.73;106526;1254;60521;-84
2023/10/02 00:31:56;;;;;;;8.20;4.10;;;;;;;13.40;73.40;100008.66;105889;1257;72854;-83
2023/10/02 00:34:30;;;;;;;6.00;3.40;;;;;;;13.35;73.57;100014.80;105791;1257;70364;-80
2023/10/02 00:37:06;;;;;;;11.80;4.20;;;;;;;13.28;73.82;100016.63;105765;1256;73601;-83
2023/10/02 00:39:37;;;;;;;10.90;4.20;;;;;;;13.21;74.16;100014.37;105950;1257;60434;-84
2023/10/02 00:42:15;;;;;;;11.60;4.60;;;;;;;13.12;74.33;100013.44;105879;1254;60511;-83
2023/10/02 00:45:01;;;;;;;8.60;3.90;;;;;;;13.03;74.62;100012.08;106494;1254;72907;-83
2023/10/02 00:47:49;;;;;;;8.80;3.50;;;;;;;13.04;74.75;100009.55;107555;1254;69038;-82
2023/10/02 00:50:18;;;;;;;7.60;3.90;;;;;;;13.00;74.88;100007.52;107261;1255;72660;-83
2023/10/02 00:53:03;;;;;;;7.50;3.90;;;;;;;12.94;75.36;100013.06;108005;1254;60427;-82
2023/10/02 00:55:32;;;;;;;11.30;4.60;;;;;;;12.85;75.53;100012.57;107629;1254;59390;-82
2023/10/02 00:58:04;;;;;;;12.50;4.20;;;;;;;12.79;75.80;100013.17;107880;1254;71674;-82
2023/10/02 01:00:36;;;;;;;10.80;4.00;;;;;;;12.73;76.00;100012.94;107895;1253;68735;-82
2023/10/02 01:03:08;;;;;;;;;;;;;;;12.77;76.06;100017.66;107291;1253;71235;-84
2023/10/02 01:05:47;;;;;;;11.80;3.90;;;;;;;12.79;76.13;100021.48;109137;1254;59293;-83
2023/10/02 01:08:24;;;;;;;7.80;3.20;;;;;;;12.72;76.38;100020.56;108962;1254;59154;-83
2023/10/02 01:10:57;;;;;;;10.80;4.00;;;;;;;12.65;76.71;100020.83;107320;1255;72436;-83
2023/10/02 01:13:34;;;;;;;10.70;4.80;;;;;;;12.57;76.86;100022.03;107503;1256;68703;-84
2023/10/02 01:16:04;;;;;;;8.10;3.40;;;;;;;12.55;77.07;100020.19;106917;1256;71407;-82
2023/10/02 01:18:36;;;;;;;8.50;4.10;;;;;;;12.61;77.08;100025.79;106529;1254;61867;-82
2023/10/02 01:21:14;;;;;;;9.20;4.00;;;;;;;12.60;77.06;100025.63;106251;1254;60374;-84
2023/10/02 01:26:36;;;;;;;12.80;4.70;;;;;;;12.47;77.60;100029.25;107043;1254;70289;-81
2023/10/02 01:29:06;;;;;;;9.00;3.50;;;;;;;12.42;77.92;100034.31;106607;1254;73020;-83
2023/10/02 01:31:52;;;;;;;9.90;4.10;;;;;;;12.39;77.95;100032.81;105894;1259;61701;-84
2023/10/02 01:34:33;;;;;;;7.90;3.50;;;;;;;12.39;78.14;100029.95;105924;1254;60629;-79
2023/10/02 01:37:05;;;;;;;8.90;3.70;;;;;;;12.34;78.29;100029.80;105893;1254;73850;-83
2023/10/02 01:39:34;;;;;;;9.10;3.60;;;;;;;12.29;78.58;100034.41;105794;1259;69031;-82
2023/10/02 01:42:05;;;;;;;10.40;3.80;;;;;;;12.24;78.75;100034.70;105890;1254;71852;-82
2023/10/02 01:44:54;;;;;;;7.30;3.50;;;;;;;12.15;79.07;100036.16;106170;1254;61852;-83
2023/10/02 01:47:20;;;;;;;8.20;4.00;;;;;;;12.16;79.16;100037.54;105839;1254;60524;-83
2023/10/02 01:50:00;;;;;;;14.50;4.80;;;;;;;12.16;79.15;100039.33;105728;1254;71647;-82
2023/10/02 01:52:28;;;;;;;10.00;4.30;;;;;;;12.08;79.46;100040.38;106093;1254;69952;-82
2023/10/02 01:55:12;;;;;;;9.80;4.00;;;;;;;11.99;79.78;100041.70;105977;1258;72220;-84
2023/10/02 01:57:41;;;;;;;12.50;3.80;;;;;;;11.92;79.97;100043.91;106206;1261;60437;-84
2023/10/02 02:00:13;;;;;;;12.20;4.00;;;;;;;11.94;80.06;100045.02;106266;1254;60511;-83
2023/10/02 02:02:41;;;;;;;7.90;3.90;;;;;;;11.96;80.20;100043.28;107689;1253;72563;-83
2023/10/02 02:05:14;;;;;;;13.80;4.50;;;;;;;11.86;80.62;100042.38;106760;1255;69194;-85
2023/10/02 02:07:42;;;;;;;9.30;4.40;;;;;;;11.76;80.84;100049.32;108158;1253;71766;-85
2023/10/02 02:10:09;;;;;;;10.80;4.00;;;;;;;11.71;81.25;100049.39;108922;1253;60473;-82
2023/10/02 02:12:44;;;;;;;10.40;3.40;;;;;;;11.75;81.13;100054.09;107299;1254;60604;-83
2023/10/02 02:15:13;;;;;;;7.70;3.60;;;;;;;11.79;81.14;100049.05;106637;1258;73912;-83
2023/10/02 02:17:41;;;;;;;8.10;3.80;;;;;;;11.73;81.40;100052.89;106398;1259;70337;-85
2023/10/02 02:20:43;;;;;;;9.10;3.60;;;;;;;11.65;81.63;100057.81;106549;1254;73078;-86
2023/10/02 02:23:07;;;;;;;12.80;3.90;;;;;;;11.56;81.83;100058.08;106201;1257;62037;-85
2023/10/02 02:25:35;;;;;;;10.70;3.50;;;;;;;11.59;82.15;100058.41;106060;1256;60448;-85
2023/10/02 02:28:06;;;;;;;9.70;3.80;;;;;;;11.64;82.02;100059.87;106394;1254;73920;-83
2023/10/02 02:30:40;;;;;;;10.80;4.00;;;;;;;11.61;82.19;100060.88;106576;1255;70412;-83
2023/10/02 02:33:08;;;;;;;9.50;4.30;;;;;;;11.57;82.36;100060.25;106052;1254;72704;-84
2023/10/02 02:35:35;;;;;;;9.90;4.30;;;;;;;11.56;82.32;100060.74;106009;1259;60462;-82
2023/10/02 02:38:03;;;;;;;9.60;3.80;;;;;;;11.60;82.32;100065.56;107130;1254;62226;-82
2023/10/02 02:40:32;;;;;;;9.00;3.90;;;;;;;11.62;82.09;100065.02;108537;1253;72402;-83
2023/10/02 02:43:12;;;;;;;9.10;3.70;;;;;;;11.58;82.39;100062.84;107381;1259;68777;-81
2023/10/02 02:45:41;;;;;;;11.80;4.20;;;;;;;11.51;82.45;100061.81;106069;1254;71399;-84
2023/10/02 02:48:10;;;;;;;10.00;3.50;;;;;;;11.45;82.70;100064.03;105845;1257;60553;-85
2023/10/02 02:50:41;;;;;;;8.20;3.80;;;;;;;11.46;82.77;100061.08;106090;1254;61168;-85
2023/10/02 02:53:17;;;;;;;12.50;4.10;;;;;;;11.48;82.84;100060.95;106372;1258;74166;-84
2023/10/02 02:55:45;;;;;;;9.80;3.60;;;;;;;11.44;83.09;100056.52;106025;1259;69051;-83
2023/10/02 02:58:12;;;;;;;11.20;4.10;;;;;;;11.37;83.27;100059.80;106569;1259;71700;-83
2023/10/02 03:00:40;;;;;;;9.00;3.60;;;;;;;11.31;83.34;100057.95;106843;1254;62769;-84
2023/10/02 03:05:58;;;;;;;17.50;10.80;;;;;;;11.37;83.32;100058.74;107836;1254;73983;-85
2023/10/02 03:08:39;;;;;;;15.80;5.70;;;;;;;11.35;83.52;100055.89;106618;1254;68527;-85
2023/10/02 03:11:06;;;;;;;9.10;3.70;;;;;;;11.33;83.71;100055.11;107817;1255;71396;-85
2023/10/02 03:13:34;;;;;;;10.90;3.80;;;;;;;11.27;83.97;100054.52;109139;1254;60411;-86
2023/10/02 03:16:09;;;;;;;9.10;3.80;;;;;;;11.32;83.88;100057.55;109069;1254;60330;-84
2023/10/02 03:18:36;;;;;;;12.20;4.20;;;;;;;11.39;83.91;100059.24;108335;1254;72504;-85
2023/10/02 03:23:35;;;;;;;9.70;3.70;;;;;;;11.35;84.06;100062.54;106367;1254;71682;-82
2023/10/02 03:26:52;;;;;;;8.30;3.90;;;;;;;11.36;83.98;100063.84;105995;1257;60562;-82
2023/10/02 03:29:16;;;;;;;12.60;3.90;;;;;;;11.41;83.80;100066.29;105946;1254;60441;-80
2023/10/02 03:31:49;;;;;;;10.80;4.10;;;;;;;11.49;83.57;100066.14;106028;1254;73007;-84
2023/10/02 03:34:28;;;;;;;18.10;10.80;;;;;;;11.48;83.55;100068.29;106020;1258;69145;-83
2023/10/02 03:39:59;;;;;;;7.40;3.10;;;;;;;11.41;83.69;100068.90;105552;1259;61699;-76
2023/10/02 03:42:31;;;;;;;8.50;3.80;;;;;;;11.46;83.52;100068.91;106108;1257;60428;-75
2023/10/02 03:45:00;;;;;;;11.30;4.00;;;;;;;11.49;83.51;100070.06;106347;1254;73836;-75
2023/10/02 03:47:33;;;;;;;7.20;3.90;;;;;;;11.44;83.38;100071.11;107345;1254;70069;-74
2023/10/02 03:50:04;;;;;;;9.30;4.10;;;;;;;11.37;83.81;100070.13;108248;1254;73062;-75
2023/10/02 03:52:33;;;;;;;9.00;3.60;;;;;;;11.32;83.83;100070.45;107373;1254;60582;-74
2023/10/02 03:55:14;;;;;;;9.60;4.20;;;;;;;11.36;83.81;100071.39;106187;1254;60510;-73
2023/10/02 03:57:55;;;;;;;7.30;3.50;;;;;;;11.42;83.66;100067.96;105536;1254;73824;-74
2023/10/02 04:00:27;;;;;;;10.00;4.20;;;;;;;11.41;84.16;100069.66;105927;1259;67766;-73
2023/10/02 04:02:56;;;;;;;13.60;5.10;;;;;;;11.38;83.91;100070.42;105797;1254;72606;-75
2023/10/02 04:05:32;;;;;;;9.80;4.10;;;;;;;11.39;84.11;100071.15;105983;1254;61114;-74
2023/10/02 04:08:14;;;;;;;11.20;4.10;;;;;;;11.46;83.74;100075.38;105631;1260;62248;-71
2023/10/02 04:10:51;;;;;;;11.50;4.10;;;;;;;11.53;83.53;100077.02;105896;1259;73812;-76
2023/10/02 04:13:25;;;;;;;9.00;4.40;;;;;;;11.53;83.55;100076.64;106395;1257;69312;-75
2023/10/02 04:16:36;;;;;;;8.50;4.00;;;;;;;11.49;83.40;100071.09;107743;1254;72468;-74
2023/10/02 04:18:46;;;;;;;8.10;3.30;;;;;;;11.46;83.43;100074.24;107269;1256;60623;-75
2023/10/02 04:21:14;;;;;;;9.80;4.00;;;;;;;11.51;83.22;100077.27;105778;1259;254422;-74
2023/10/02 04:26:36;;;;;;;12.90;4.10;;;;;;;11.56;83.02;100081.46;103017;1292;616501;-75
2023/10/02 04:29:26;;;;;;;12.70;5.20;;;;;;;11.46;83.13;100090.21;104714;1267;60154;-76
2023/10/02 04:32:14;;;;;;;11.30;4.00;;;;;;;11.44;83.47;100096.63;104854;1267;60433;-76
2023/10/02 04:35:03;;;;;;;11.60;4.00;;;;;;;11.54;83.44;100103.18;105064;1267;70944;-75
2023/10/02 04:37:36;;;;;;;11.50;4.50;;;;;;;11.61;82.99;100109.11;105011;1270;70158;-74
2023/10/02 04:45:34;;;;;;;11.30;5.90;;;;;;;11.44;83.30;100112.39;105115;1264;60419;-76
2023/10/02 04:48:01;;;;;;;7.40;3.80;;;;;;;11.49;83.14;100112.43;105087;1269;72216;-75
2023/10/02 04:55:43;;;;;;;16.30;4.60;;;;;;;11.49;83.89;100113.99;105043;1269;59638;-76
2023/10/02 04:58:18;;;;;;;10.80;4.10;;;;;;;11.49;83.44;100117.39;105134;1265;59641;-76
2023/10/02 05:03:29;;;;;;;;;;;;;;;11.59;83.42;100120.19;105095;1264;69979;-76
2023/10/02 05:05:58;;;;;;;8.80;4.30;;;;;;;11.58;83.83;100123.00;105177;1264;72370;-77
2023/10/02 05:08:37;;;;;;;13.80;5.30;;;;;;;11.60;84.04;100125.45;105134;1264;60053;-75
2023/10/02 05:11:07;;;;;;;10.90;4.20;;;;;;;11.66;83.72;100129.59;105246;1263;59730;-76
2023/10/02 05:16:36;;;;;;;8.30;4.50;;;;;;;11.99;83.10;100133.63;105230;1264;70308;-76
2023/10/02 05:19:04;;;;;;;8.30;4.50;;;;;;;12.06;82.74;100138.41;106796;1264;71267;-76
2023/10/02 05:21:49;;;;;;;9.00;4.40;;;;;;;12.09;82.56;100142.14;106028;1264;59749;-77
2023/10/02 05:24:18;;;;;;;8.90;4.40;;;;;;;12.10;82.24;100139.88;104929;1265;59640;-76
2023/10/02 05:26:44;;;;;;;9.80;4.10;;;;;;;12.14;82.30;100143.43;105243;1266;71564;-77
2023/10/02 05:29:35;;;;;;;10.40;4.10;;;;;;;12.25;81.84;100147.64;105160;1267;70070;-76
2023/10/02 05:32:23;;;;;;;8.00;3.60;;;;;;;12.37;81.33;100151.15;105108;1267;72625;-77
2023/10/02 05:37:34;;;;;;;15.20;5.00;;;;;;;12.29;81.42;100153.06;105910;1254;60299;-76
2023/10/02 05:50:56;;;;;;;13.20;5.50;;;;;;;12.66;80.71;100164.47;106043;1253;60180;-79
2023/10/02 05:53:29;;;;;;;9.90;4.60;;;;;;;12.70;80.08;100161.19;106058;1254;71111;-80
2023/10/02 05:56:05;;;;;;;14.50;4.60;;;;;;;12.64;79.86;100163.80;106022;1258;69105;-80
2023/10/02 05:58:33;;;;;;;8.50;3.80;;;;;;;12.68;79.81;100166.23;106433;1254;72732;-79
2023/10/02 06:01:04;;;;;;;9.50;4.50;;;;;;;12.71;79.62;100172.58;107026;1254;59729;-80
2023/10/02 06:03:36;;;;;;;12.40;5.10;;;;;;;12.69;79.82;100173.77;107238;1253;60338;-81
2023/10/02 06:06:17;;;;;;;12.70;4.80;;;;;;;12.71;79.89;100178.52;106894;1254;72814;-78
2023/10/02 06:08:51;;;;;;;12.20;4.30;;;;;;;12.74;79.82;100180.67;107322;1254;70091;-77
2023/10/02 06:11:34;;;;;;;11.80;3.80;;;;;;;12.77;79.62;100185.80;107358;1257;71215;-76
2023/10/02 06:14:09;;;;;;;12.80;5.30;;;;;;;12.87;79.08;100187.69;107281;1253;60494;-80
2023/10/02 06:16:45;;;;;;;9.40;4.20;;;;;;;12.95;78.95;100183.02;107229;1253;59499;-79
2023/10/02 06:19:13;;;;;;;9.90;3.80;;;;;;;13.01;79.12;100183.67;107721;1253;71792;-80
2023/10/02 06:22:04;;;;;;;13.40;4.70;;;;;;;13.07;78.96;100176.45;108862;1254;69593;-78
2023/10/02 06:24:32;;;;;;;16.30;4.70;;;;;;;13.13;78.69;100172.48;107919;1253;73413;-79
2023/10/02 06:27:04;;;;;;;12.20;5.20;;;;;;;13.19;78.49;100175.54;106318;1254;60704;-78
2023/10/02 06:29:37;;;;;;;12.40;4.40;;;;;;;13.36;78.14;100170.14;106058;1259;59654;-79
2023/10/02 06:32:20;;;;;;;;;;;;;;;13.50;77.87;100168.48;106217;1257;73016;-79
2023/10/02 06:34:50;;;;;;;10.40;4.80;;;;;;;13.60;77.37;100176.64;105996;1253;70319;-79
2023/10/02 06:37:19;;;;;;;7.30;3.80;;;;;;;13.63;76.99;100176.16;106031;1253;72710;-81
2023/10/02 06:40:04;;;;;;;10.40;5.10;;;;;;;13.68;76.95;100177.20;106089;1254;60324;-79
2023/10/02 06:42:31;;;;;;;10.80;4.60;;;;;;;13.76;76.84;100180.15;106190;1254;59595;-76
2023/10/02 06:45:01;;;;;;;10.80;4.20;;;;;;;13.85;76.36;100180.00;105910;1253;73419;-80
2023/10/02 06:47:30;;;;;;;9.80;4.30;;;;;;;14.00;76.13;100182.48;106024;1253;69764;-82
2023/10/02 06:50:21;;;;;;;9.70;3.90;;;;;;;14.17;75.86;100186.35;105940;1253;73952;-79
2023/10/02 06:52:51;;;;;;;7.10;3.80;;;;;;;14.30;75.33;100192.52;106042;1255;59756;-81
2023/10/02 06:55:18;;;;;;;10.80;4.80;;;;;;;14.36;74.78;100193.23;106115;1253;59817;-84
2023/10/02 06:57:52;;;;;;;8.50;3.90;;;;;;;14.39;74.62;100190.80;106115;1255;73023;-80
2023/10/02 07:00:20;;;;;;;8.20;4.20;;;;;;;14.46;74.63;100195.48;106068;1254;69170;-80
2023/10/02 07:02:56;;;;;;;8.70;4.30;;;;;;;14.58;74.27;100191.89;106029;1254;72760;-79
2023/10/02 07:05:32;;;;;;;9.00;3.70;;;;;;;14.72;73.77;100194.83;106056;1254;62098;-81
2023/10/02 07:08:17;;;;;;;9.70;5.00;;;;;;;14.98;73.21;100198.05;106344;1254;60234;-82
2023/10/02 07:10:47;;;;;;;7.60;4.20;;;;;;;15.17;72.48;100195.90;106012;1256;73246;-83
2023/10/02 07:13:21;;;;;;;9.50;4.40;;;;;;;15.29;72.36;100198.55;105965;1253;69082;-79
2023/10/02 07:15:59;;;;;;;7.70;3.60;;;;;;;15.40;71.52;100203.25;105920;1254;72551;-77
2023/10/02 07:18:49;;;;;;;7.10;4.10;;;;;;;15.43;71.20;100199.88;106044;1254;60362;-77
2023/10/02 07:21:19;;;;;;;6.80;4.20;;;;;;;15.48;70.96;100200.11;106215;1254;60454;-78
2023/10/02 07:23:46;;;;;;;8.70;4.30;;;;;;;15.53;70.76;100202.38;107625;1253;71739;-78
2023/10/02 07:26:19;;;;;;;12.60;3.90;;;;;;;15.58;70.68;100203.67;108549;1253;71709;-83
2023/10/02 07:28:50;;;;;;;11.50;4.30;;;;;;;15.66;70.31;100204.88;108206;1254;71458;-83
2023/10/02 07:31:21;;;;;;;9.10;4.70;;;;;;;15.82;70.35;100208.09;106814;1253;59614;-82
2023/10/02 07:33:48;;;;;;;9.20;4.20;;;;;;;16.01;69.88;100208.66;106544;1254;59702;-82
2023/10/02 07:36:16;;;;;;;9.90;3.90;;;;;;;16.11;69.13;100206.57;106401;1258;72834;-83
2023/10/02 07:38:46;;;;;;;8.70;4.10;;;;;;;16.18;69.06;100208.27;106277;1254;70335;-83
2023/10/02 07:41:23;;;;;;;8.80;4.10;;;;;;;16.28;68.90;100214.11;106444;1254;72543;-82
2023/10/02 07:43:53;;;;;;;6.40;4.30;;;;;;;16.41;68.05;100216.39;106356;1254;60380;-83
2023/10/02 07:46:23;;;;;;;7.90;4.30;;;;;;;16.44;67.72;100219.20;107567;1253;60184;-82
2023/10/02 07:49:00;;;;;;;9.20;4.10;;;;;;;16.49;67.25;100220.11;107228;1256;74051;-83
2023/10/02 07:51:38;;;;;;;8.40;4.40;;;;;;;16.44;67.38;100221.60;107246;1253;70107;-82
2023/10/02 07:54:09;;;;;;;11.90;4.30;;;;;;;16.47;67.45;100218.48;107388;1257;73228;-82
2023/10/02 07:56:39;;;;;;;8.80;3.50;;;;;;;16.55;67.10;100219.16;107414;1254;59237;-81
2023/10/02 07:59:07;;;;;;;5.80;3.70;;;;;;;16.62;67.12;100224.00;106969;1254;60448;-82
2023/10/02 08:01:34;;;;;;;8.30;3.50;;;;;;;16.71;66.82;100225.67;106872;1254;73191;-83
2023/10/02 08:04:02;;;;;;;7.30;3.90;;;;;;;16.81;66.59;100228.85;106888;1253;71286;-82
2023/10/02 08:06:33;;;;;;;8.20;4.10;;;;;;;16.89;65.86;100229.31;106133;1254;72746;-83
2023/10/02 08:11:54;;;;;;;8.30;3.60;;;;;;;16.99;65.65;100232.31;106151;1259;60084;-82
2023/10/02 08:14:38;;;;;;;7.60;4.20;;;;;;;17.15;64.62;100232.06;106016;1254;72066;-82
2023/10/02 08:17:17;;;;;;;6.70;3.40;;;;;;;17.17;64.27;100237.57;106067;1259;69234;-82
2023/10/02 08:19:54;;;;;;;7.40;3.80;;;;;;;17.20;64.27;100236.42;106524;1253;72867;-83
2023/10/02 08:22:23;;;;;;;7.30;3.30;;;;;;;17.33;64.04;100233.50;107402;1253;59273;-82
2023/10/02 08:24:52;;;;;;;8.20;4.00;;;;;;;17.49;63.63;100231.38;107470;1254;59654;-82
2023/10/02 08:27:24;;;;;;;6.00;3.50;;;;;;;17.65;63.21;100229.69;108404;1254;72552;-81
2023/10/02 08:29:53;;;;;;;10.50;4.10;;;;;;;17.75;62.71;100228.31;108262;1253;68866;-82
2023/10/02 08:32:30;;;;;;;8.30;3.50;;;;;;;17.84;62.40;100222.10;108286;1252;71777;-81
2023/10/02 08:34:57;;;;;;;5.60;3.50;;;;;;;17.95;62.25;100226.23;108589;1253;59609;-82
2023/10/02 08:37:26;;;;;;;8.30;3.70;;;;;;;18.09;61.64;100228.31;108087;1253;59641;-82
2023/10/02 08:39:53;;;;;;;10.40;3.60;;;;;;;18.22;61.02;100231.00;107847;1254;71586;-82
2023/10/02 08:42:24;;;;;;;6.40;3.70;;;;;;;18.40;60.33;100232.29;107547;1254;70123;-84
2023/10/02 08:44:58;;;;;;;8.90;4.60;;;;;;;18.49;59.90;100230.39;107312;1259;70212;-83
2023/10/02 08:47:25;;;;;;;5.90;3.70;;;;;;;18.54;59.88;100230.02;107340;1254;60594;-83
2023/10/02 08:50:03;;;;;;;10.40;4.30;;;;;;;18.66;59.55;100231.48;106955;1253;60458;-84
2023/10/02 08:52:47;;;;;;;7.60;4.30;;;;;;;18.78;59.22;100231.39;106633;1254;73677;-82
2023/10/02 08:58:22;;;;;;;7.90;4.30;;;;;;;19.12;58.56;100239.57;106575;1254;71240;-83
2023/10/02 09:03:43;;;;;;;7.30;4.30;;;;;;;19.51;57.03;100239.33;106904;1254;60377;-80
2023/10/02 09:06:27;;;;;;;11.00;4.20;;;;;;;19.84;56.58;100238.81;106447;1259;72279;-82
2023/10/02 09:11:42;;;;;;;8.50;4.10;;;;;;;20.52;53.63;100242.75;106810;1253;71268;-84
2023/10/02 09:17:19;;;;;;;9.30;4.70;;;;;;;20.82;53.08;100246.69;107180;1257;60419;-84
2023/10/02 09:20:07;;;;;;;9.10;4.90;;;;;;;21.29;52.31;100247.42;107188;1253;73856;-83
2023/10/02 09:22:38;;;;;;;7.30;4.10;;;;;;;21.87;51.21;100242.98;107104;1254;70296;-84
2023/10/02 09:25:13;;;;;;;6.60;4.70;;;;;;;22.37;50.10;100238.10;107259;1254;73891;-82
2023/10/02 09:27:57;;;;;;;7.30;4.20;;;;;;;22.96;49.31;100233.77;107452;1252;60520;-83
2023/10/02 09:33:25;;;;;;;7.00;4.10;;;;;;;24.06;46.91;100226.00;109216;1253;72601;-83
2023/10/02 09:36:17;;;;;;;10.20;4.90;;;;;;;24.10;45.99;100231.79;108308;1253;69075;-81
2023/10/02 09:39:31;;;;;;;7.70;4.50;;;;;;;23.77;45.99;100233.50;108208;1254;71238;-83
2023/10/02 09:42:05;;;;;;;6.70;5.00;;;;;;;23.39;46.42;100235.65;106964;1254;60457;-84
2023/10/02 09:44:40;;;;;;;7.80;4.20;;;;;;;23.06;46.75;100238.54;106560;1256;60329;-80
2023/10/02 09:47:08;;;;;;;9.80;5.00;;;;;;;22.68;47.21;100240.95;106215;1253;72356;-83
2023/10/02 09:49:43;;;;;;;8.00;4.90;;;;;;;22.26;47.78;100243.40;106314;1253;70718;-83
2023/10/02 09:52:17;;;;;;;6.80;4.20;;;;;;;21.92;48.03;100246.22;106343;1257;73877;-84
2023/10/02 09:55:07;;;;;;;8.00;4.50;;;;;;;21.96;48.15;100243.34;106318;1258;60534;-84
2023/10/02 09:57:37;;;;;;;7.50;4.50;;;;;;;22.40;47.43;100239.09;106481;1254;60448;-84
2023/10/02 10:00:53;;;;;;;7.50;4.60;;;;;;;22.88;46.56;100241.50;106926;1258;72840;-86
2023/10/02 10:03:30;;;;;;;9.00;4.90;;;;;;;23.43;46.02;100242.61;106830;1253;70032;-84
2023/10/02 10:06:06;;;;;;;8.60;4.50;;;;;;;24.04;44.65;100234.34;106554;1256;71146;-83
2023/10/02 10:11:44;;;;;;;8.90;5.80;;;;;;;24.84;42.56;100231.36;107087;1254;60467;-83
2023/10/02 10:14:40;;;;;;;8.40;5.60;;;;;;;24.78;42.07;100233.66;106837;1253;72940;-84
2023/10/02 10:17:15;;;;;;;8.70;4.90;;;;;;;24.44;42.28;100236.02;108309;1254;68984;-84
2023/10/02 10:19:53;;;;;;;9.20;4.80;;;;;;;24.07;42.87;100239.91;106365;1253;71480;-84
2023/10/02 10:22:36;;;;;;;8.80;5.20;;;;;;;23.67;43.61;100240.27;106352;1254;60653;-84
2023/10/02 10:27:37;;;;;;;9.30;4.70;;;;;;;23.03;44.73;100241.45;106243;1261;75006;-83
2023/10/02 10:30:22;;;;;;;8.60;4.60;;;;;;;22.71;45.02;100239.12;106465;1254;71735;-83
2023/10/02 10:33:13;;;;;;;8.00;5.60;;;;;;;22.53;45.31;100237.41;107965;1253;72702;-84
2023/10/02 10:35:49;;;;;;;7.50;4.70;;;;;;;22.85;45.30;100236.98;108677;1253;60511;-84
2023/10/02 10:38:20;;;;;;;7.50;5.00;;;;;;;23.20;44.35;100233.70;107772;1254;60448;-84
2023/10/02 10:40:50;;;;;;;7.50;5.50;;;;;;;23.23;43.88;100228.71;106866;1254;73918;-84
2023/10/02 10:43:18;;;;;;;8.20;5.00;;;;;;;23.08;44.25;100230.56;107093;1254;70188;-83
2023/10/02 10:45:48;;;;;;;10.50;5.40;;;;;;;22.92;44.87;100235.84;105899;1254;72663;-83
2023/10/02 10:48:24;;;;;;;10.00;5.30;;;;;;;22.70;45.27;100233.52;106114;1253;60520;-85
2023/10/02 10:51:03;;;;;;;9.80;5.80;;;;;;;22.43;45.87;100237.83;106190;1254;60763;-80
2023/10/02 10:53:32;;;;;;;11.90;5.40;;;;;;;22.15;46.57;100240.84;107325;1259;74200;-82
2023/10/02 10:56:03;;;;;;;11.30;4.80;;;;;;;22.08;47.08;100243.38;107430;1256;69177;-84
2023/10/02 10:58:33;;;;;;;7.40;5.10;;;;;;;22.46;46.79;100238.64;106281;1254;72722;-84
2023/10/02 11:01:13;;;;;;;10.00;5.90;;;;;;;23.26;45.51;100241.66;106294;1253;60572;-85
2023/10/02 11:03:41;;;;;;;9.80;5.80;;;;;;;24.30;43.52;100235.19;107013;1254;60427;-83
2023/10/02 11:06:15;;;;;;;7.60;5.40;;;;;;;25.33;41.97;100231.27;106634;1254;73771;-84
2023/10/02 11:08:44;;;;;;;7.10;5.50;;;;;;;26.38;40.03;100228.90;106328;1254;70504;-85
2023/10/02 11:11:18;;;;;;;7.60;5.50;;;;;;;27.10;39.31;100219.69;106583;1253;72462;-86
2023/10/02 11:13:52;;;;;;;9.20;5.60;;;;;;;27.98;37.84;100219.95;106337;1253;60485;-84
2023/10/02 11:16:33;;;;;;;8.90;5.50;;;;;;;28.82;36.48;100212.07;106385;1256;61439;-84
2023/10/02 11:19:21;;;;;;;11.50;6.10;;;;;;;29.50;35.55;100214.80;106595;1253;73836;-84
2023/10/02 11:22:15;;;;;;;7.20;5.50;;;;;;;29.88;34.45;100216.77;106329;1259;69555;-84
2023/10/02 11:24:51;;;;;;;7.10;5.70;;;;;;;29.98;33.99;100221.20;106731;1253;71968;-86
2023/10/02 11:27:18;;;;;;;10.10;6.10;;;;;;;30.13;33.54;100222.05;107477;1252;61225;-82
2023/10/02 11:30:03;;;;;;;9.00;6.00;;;;;;;30.18;33.41;100225.02;107696;1253;59161;-85
2023/10/02 11:32:58;;;;;;;7.90;6.00;;;;;;;30.26;33.21;100225.34;107979;1253;74809;-84
2023/10/02 11:35:29;;;;;;;7.70;6.00;;;;;;;30.42;33.22;100226.70;108111;1253;69335;-84
2023/10/02 11:37:57;;;;;;;6.90;5.50;;;;;;;30.73;32.99;100219.52;108888;1254;71846;-84
2023/10/02 11:40:28;;;;;;;7.90;6.40;;;;;;;31.12;32.59;100215.86;107651;1257;61021;-81
2023/10/02 11:42:59;;;;;;;8.40;5.90;;;;;;;31.65;31.69;100208.73;107491;1253;60538;-81
2023/10/02 11:45:29;;;;;;;8.40;6.50;;;;;;;32.01;31.15;100212.16;107632;1254;75679;-82
2023/10/02 11:47:57;;;;;;;9.80;6.70;;;;;;;32.35;30.67;100210.09;107541;1258;68767;-81
2023/10/02 11:50:25;;;;;;;7.90;6.40;;;;;;;32.65;30.36;100213.13;108114;1253;71429;-85
2023/10/02 11:52:53;;;;;;;7.70;6.30;;;;;;;32.93;30.16;100215.11;109086;1253;58620;-83
2023/10/02 11:55:23;;;;;;;7.70;6.00;;;;;;;33.20;29.95;100217.92;108967;1253;60419;-83
2023/10/02 11:57:51;;;;;;;7.80;6.50;;;;;;;33.03;29.62;100225.77;108071;1255;72477;-83
2023/10/02 12:00:20;;;;;;;7.70;5.60;;;;;;;32.50;29.86;100233.69;107208;1254;71300;-84
2023/10/02 12:02:49;;;;;;;11.10;7.00;;;;;;;31.76;30.47;100231.98;107143;1254;72669;-83
2023/10/02 12:05:18;;;;;;;9.20;7.00;;;;;;;31.12;31.16;100235.13;107313;1257;60568;-85
2023/10/02 12:07:47;;;;;;;7.40;5.90;;;;;;;30.79;31.65;100237.11;106569;1259;60919;-83
2023/10/02 12:10:15;;;;;;;7.00;5.60;;;;;;;30.84;31.79;100229.66;108013;1256;73246;-83
2023/10/02 12:12:47;;;;;;;8.30;6.20;;;;;;;31.10;31.53;100230.77;106563;1257;69006;-84
2023/10/02 12:15:19;;;;;;;7.80;5.60;;;;;;;31.33;30.93;100229.20;106111;1261;76385;-85
2023/10/02 12:17:53;;;;;;;8.80;5.40;;;;;;;31.28;31.06;100233.17;106571;1257;60993;-84
2023/10/02 12:20:28;;;;;;;7.20;5.10;;;;;;;31.32;31.31;100232.45;106885;1253;60191;-85
2023/10/02 12:22:55;;;;;;;8.60;5.60;;;;;;;31.64;30.86;100231.77;107397;1257;73807;-87
2023/10/02 12:25:27;;;;;;;6.30;5.30;;;;;;;31.94;30.72;100229.55;106824;1254;69272;-86
2023/10/02 12:27:59;;;;;;;7.50;5.50;;;;;;;32.43;30.18;100233.85;106635;1253;75208;-85
2023/10/02 12:30:28;;;;;;;6.90;5.00;;;;;;;32.80;29.89;100234.90;106927;1254;60525;-86
2023/10/02 12:33:01;;;;;;;8.70;5.80;;;;;;;33.13;29.65;100225.90;106850;1254;62668;-84
2023/10/02 12:35:36;;;;;;;7.80;5.80;;;;;;;33.34;29.19;100230.80;107430;1253;73118;-82
2023/10/02 12:38:04;;;;;;;6.50;5.30;;;;;;;33.41;28.96;100224.31;106545;1254;72480;-84
2023/10/02 12:40:33;;;;;;;6.30;5.20;;;;;;;33.33;29.09;100226.13;108460;1254;71527;-82
2023/10/02 12:43:01;;;;;;;6.50;5.40;;;;;;;33.28;29.06;100232.69;108801;1254;59114;-81
2023/10/02 12:45:35;;;;;;;5.50;4.90;;;;;;;33.02;29.11;100229.86;107565;1253;60380;-81
2023/10/02 12:48:06;;;;;;;7.90;5.60;;;;;;;32.37;29.52;100236.61;106857;1254;72957;-81
2023/10/02 12:50:38;;;;;;;8.20;5.90;;;;;;;31.48;30.18;100239.05;106597;1252;70015;-81
2023/10/02 12:53:10;;;;;;;9.90;6.40;;;;;;;30.55;31.03;100247.39;106435;1254;73409;-83